Quick Links (Output Below):   Max & Min Temps   /   Climate Reports   /   Zone Forecasts
River Forecasts   /   Forestry Forecasts   /   Aviation Forecasts   /   Radars   /   Features

Terminal Aerodrome Forecast (Monticello)

Pick a Site:
Arkadelphia | El Dorado | Fayetteville | Fort Smith | Harrison | Highfill | Hot Springs | Jonesboro
Little Rock | Monticello | Mountain Home | Pine Bluff | Texarkana
 Forecast 

KLLQ 280031Z 2801/2824 04008KT P6SM VCTS SCT060CB BKN080
      TEMPO 2801/2803 VRB10G18KT SCT030 BKN040CB
     FM280700 03003KT P6SM SCT250
     FM281600 06008KT P6SM FEW060=


 Latest METARs (Observations) 
How to Decode METARs
03Z KLLQ 280253Z AUTO 00000KT 10SM CLR 25/23 A3004 RMK AO2 SLP169
         60044 T02500228 51013
         
02Z KLLQ 280153Z AUTO VRB03KT 10SM CLR 25/23 A3003 RMK AO2 LTG DSNT W
         AND NW RAE07 TSE16 SLP167 P0001 T02500228
         
01Z KLLQ 280053Z AUTO 00000KT 1 1/4SM +TSRA SCT026 BKN035 OVC050 24/22
         A3004 RMK AO2 PK WND 06026/0043 LTG DSNT S AND SW RAB36 TSB15
         SLP167 P0043 T02440217
         
00Z KLLQ 272353Z AUTO 00000KT 10SM CLR 32/24 A3000 RMK AO2 LTG DSNT SW
         SLP156 T03220239 10350 20322 53001
         
***** Today's Observations (Above) *****


23Z KLLQ 272253Z AUTO 03005KT 10SM FEW045 34/23 A2998 RMK AO2 SLP147
         T03440233
         
22Z KLLQ 272153Z AUTO VRB05KT 10SM CLR 34/23 A2999 RMK AO2 SLP151
         T03440228
         
21Z KLLQ 272053Z AUTO 29007KT 250V310 10SM CLR 34/23 A3000 RMK AO2
         SLP155 T03440233 56023
         
20Z KLLQ 271953Z AUTO VRB05KT 10SM CLR 34/22 A3002 RMK AO2 SLP159
         T03390222
         
19Z KLLQ 271853Z AUTO 32007KT 10SM CLR 33/22 A3003 RMK AO2 SLP166
         T03330222
         
18Z KLLQ 271753Z AUTO VRB04KT 10SM CLR 33/22 A3007 RMK AO2 SLP178
         T03330217 10339 20244 58012
         
***** Yesterday's Observations (Above) *****


Back to Main Page
http://www.srh.noaa.gov/lzk/qfcst.php

USA.gov is the U.S. government's official web portal to all federal, state and local government web resources and services.